createdAt,value
2018-09-18T00:02:53.971Z,63.60
2018-09-18T00:05:28.162Z,63.60
2018-09-18T00:08:06.362Z,63.70
2018-09-18T00:10:41.576Z,63.70
2018-09-18T00:16:04.024Z,63.80
2018-09-18T00:18:36.528Z,63.90
2018-09-18T00:21:08.945Z,63.90
2018-09-18T00:23:40.451Z,64.00
2018-09-18T00:26:14.685Z,64.10
2018-09-18T00:33:58.165Z,64.40
2018-09-18T00:36:31.118Z,64.30
2018-09-18T00:39:07.427Z,64.40
2018-09-18T00:44:20.611Z,64.60
2018-09-18T00:46:56.748Z,64.80
2018-09-18T00:52:05.670Z,65.10
2018-09-18T00:54:45.550Z,65.20
2018-09-18T00:57:21.145Z,65.20
2018-09-18T00:59:54.377Z,65.30
2018-09-18T01:05:12.904Z,65.20
2018-09-18T01:07:42.882Z,65.10
2018-09-18T01:10:12.782Z,65.10
2018-09-18T01:12:47.687Z,64.90
2018-09-18T01:15:19.140Z,64.80
2018-09-18T01:17:49.327Z,64.70
2018-09-18T01:20:23.632Z,64.80
2018-09-18T01:23:01.290Z,64.90
2018-09-18T01:25:42.545Z,64.90
2018-09-18T01:28:12.441Z,64.90
2018-09-18T01:30:43.576Z,65.10
2018-09-18T01:33:14.805Z,65.20
2018-09-18T01:35:46.350Z,65.30
2018-09-18T01:41:03.632Z,65.60
2018-09-18T01:46:17.820Z,65.90
2018-09-18T01:51:26.803Z,66.20
2018-09-18T01:53:58.387Z,66.40
2018-09-18T01:56:32.935Z,66.50
2018-09-18T01:59:04.570Z,66.70
2018-09-18T02:01:37.489Z,66.90
2018-09-18T02:04:08.165Z,67.00
2018-09-18T02:06:41.786Z,67.10
2018-09-18T02:09:10.418Z,67.20
2018-09-18T02:11:44.782Z,67.40
2018-09-18T02:14:14.978Z,67.50
2018-09-18T02:16:55.374Z,67.60
2018-09-18T02:19:25.765Z,67.70
2018-09-18T02:21:56.140Z,67.70
2018-09-18T02:24:29.407Z,67.60
2018-09-18T02:29:37.734Z,67.40
2018-09-18T02:32:10.375Z,67.30
2018-09-18T02:34:55.744Z,67.30
2018-09-18T02:37:26.877Z,67.20
2018-09-18T02:39:59.804Z,67.20
2018-09-18T02:42:32.995Z,67.10
2018-09-18T02:45:05.857Z,67.10
2018-09-18T02:47:35.770Z,67.10
2018-09-18T02:50:04.812Z,67.00
2018-09-18T02:52:35.953Z,67.00
2018-09-18T02:55:05.891Z,67.00
2018-09-18T02:57:37.347Z,67.10
2018-09-18T03:00:12.468Z,67.00
2018-09-18T03:02:43.518Z,67.10
2018-09-18T03:05:18.703Z,67.00
2018-09-18T03:07:47.894Z,66.90
2018-09-18T03:10:19.085Z,66.80
2018-09-18T03:12:52.658Z,66.60
2018-09-18T03:15:58.215Z,66.50
2018-09-18T03:18:31.411Z,66.30
2018-09-18T03:21:03.028Z,66.10
2018-09-18T03:23:37.360Z,66.00
2018-09-18T03:26:07.381Z,65.90
2018-09-18T03:28:37.851Z,65.90
2018-09-18T03:33:53.213Z,65.70
2018-09-18T03:39:00.395Z,65.70
2018-09-18T03:41:30.564Z,65.80
2018-09-18T03:44:04.426Z,65.70
2018-09-18T03:46:49.380Z,65.80
2018-09-18T03:49:21.227Z,65.80
2018-09-18T03:51:51.332Z,65.80
2018-09-18T03:54:22.631Z,65.90
2018-09-18T03:56:52.487Z,65.90
2018-09-18T03:59:23.281Z,65.90
2018-09-18T04:01:52.461Z,65.80
2018-09-18T04:04:21.802Z,65.80
2018-09-18T04:06:51.066Z,65.80
2018-09-18T04:09:22.431Z,65.80
2018-09-18T04:11:52.563Z,65.80
2018-09-18T04:14:21.750Z,65.80
2018-09-18T04:16:51.047Z,66.50
2018-09-18T04:19:19.612Z,65.80
2018-09-18T04:21:51.172Z,65.90
2018-09-18T04:24:28.180Z,65.80
2018-09-18T04:29:38.380Z,66.00
2018-09-18T04:32:12.511Z,65.90
2018-09-18T04:34:49.504Z,65.90
2018-09-18T04:37:19.580Z,65.90
2018-09-18T04:39:52.419Z,65.80
2018-09-18T04:42:25.640Z,65.80
2018-09-18T04:44:55.920Z,65.80
2018-09-18T04:47:27.306Z,65.70
2018-09-18T04:49:59.058Z,65.80
2018-09-18T04:52:30.186Z,65.70
2018-09-18T04:55:19.442Z,65.60
2018-09-18T04:57:53.260Z,65.60
2018-09-18T05:00:24.213Z,65.40
2018-09-18T05:02:59.230Z,65.40
2018-09-18T05:05:43.681Z,65.40
2018-09-18T05:08:18.956Z,65.50
2018-09-18T05:10:48.093Z,65.50
2018-09-18T05:13:22.626Z,65.40
2018-09-18T05:16:03.137Z,65.40
2018-09-18T05:18:39.896Z,65.60
2018-09-18T05:21:14.132Z,65.60
2018-09-18T05:23:51.214Z,65.60
2018-09-18T05:26:28.871Z,65.60
2018-09-18T05:29:00.459Z,65.70
2018-09-18T05:31:39.639Z,65.80
2018-09-18T05:39:42.076Z,66.50
2018-09-18T05:45:26.421Z,65.90
2018-09-18T05:48:02.448Z,65.90
2018-09-18T05:53:26.121Z,65.90
2018-09-18T05:56:03.305Z,65.90
2018-09-18T05:58:51.414Z,65.80
2018-09-18T06:04:08.292Z,65.60
2018-09-18T06:15:40.992Z,64.50
2018-09-18T06:18:11.341Z,64.40
2018-09-18T06:20:41.495Z,64.00
2018-09-18T06:23:10.575Z,63.60
2018-09-18T06:25:49.827Z,63.50
2018-09-18T06:28:18.325Z,63.30
2018-09-18T06:30:48.391Z,63.20
2018-09-18T06:33:18.615Z,63.10
2018-09-18T06:35:51.675Z,63.00
2018-09-18T06:40:57.151Z,62.70
2018-09-18T06:43:27.354Z,62.50
2018-09-18T06:46:11.554Z,62.50
2018-09-18T06:48:46.315Z,62.30
2018-09-18T06:51:26.376Z,62.10
2018-09-18T06:53:54.879Z,62.00
2018-09-18T06:56:24.476Z,61.80
2018-09-18T06:58:54.227Z,61.60
2018-09-18T07:04:01.684Z,61.30
2018-09-18T07:06:46.881Z,61.00
2018-09-18T07:09:20.652Z,60.80
2018-09-18T07:11:51.107Z,60.30
2018-09-18T07:14:22.096Z,60.00
2018-09-18T07:16:51.122Z,59.90
2018-09-18T07:19:19.528Z,59.80
2018-09-18T07:21:50.233Z,59.50
2018-09-18T07:24:19.979Z,59.00
2018-09-18T07:26:49.095Z,58.60
2018-09-18T07:29:22.790Z,58.30
2018-09-18T07:31:54.595Z,57.90
2018-09-18T07:34:24.427Z,57.60
2018-09-18T07:36:55.162Z,57.20
2018-09-18T07:39:23.615Z,57.10
2018-09-18T07:41:56.615Z,56.70
2018-09-18T07:44:34.684Z,56.60
2018-09-18T07:47:07.838Z,56.20
2018-09-18T07:49:39.144Z,55.90
2018-09-18T07:52:09.203Z,55.60
2018-09-18T07:57:17.870Z,54.50
2018-09-18T07:59:50.590Z,53.90
2018-09-18T08:02:21.276Z,53.50
2018-09-18T08:05:02.610Z,53.20
2018-09-18T08:07:31.241Z,52.80
2018-09-18T08:10:00.523Z,52.40
2018-09-18T08:12:37.772Z,52.00
2018-09-18T08:15:21.127Z,52.10
2018-09-18T08:17:59.611Z,51.00
2018-09-18T08:20:30.431Z,50.70
2018-09-18T08:23:00.641Z,50.00
2018-09-18T08:25:31.627Z,48.70
2018-09-18T08:28:00.524Z,47.60
2018-09-18T08:30:30.604Z,46.90
2018-09-18T08:33:03.234Z,46.20
2018-09-18T08:41:19.822Z,44.30
2018-09-18T08:43:58.872Z,43.80
2018-09-18T08:46:27.766Z,43.50
2018-09-18T08:48:59.380Z,43.40
2018-09-18T08:51:28.501Z,43.50
2018-09-18T08:54:02.946Z,43.50
2018-09-18T08:56:42.500Z,42.70
2018-09-18T08:59:12.821Z,42.20
2018-09-18T09:01:42.288Z,41.60
2018-09-18T09:04:11.094Z,41.30
2018-09-18T09:06:41.558Z,41.10
2018-09-18T09:09:15.703Z,41.00
2018-09-18T09:11:45.553Z,40.80
2018-09-18T09:14:14.933Z,40.40
2018-09-18T09:16:43.839Z,40.10
2018-09-18T09:19:13.478Z,39.90
2018-09-18T09:21:43.317Z,39.60
2018-09-18T09:24:13.588Z,39.20
2018-09-18T09:26:48.579Z,38.80
2018-09-18T09:29:18.498Z,38.50
2018-09-18T09:34:23.165Z,38.40
2018-09-18T09:36:54.454Z,38.60
2018-09-18T09:39:24.543Z,38.80
2018-09-18T09:42:02.366Z,38.70
2018-09-18T09:44:33.149Z,38.40
2018-09-18T09:52:27.969Z,38.70
2018-09-18T09:55:03.293Z,38.70
2018-09-18T09:57:33.159Z,38.80
2018-09-18T10:00:02.428Z,39.00
2018-09-18T10:05:30.762Z,39.20
2018-09-18T10:10:38.429Z,38.80
2018-09-18T10:13:08.204Z,38.90
2018-09-18T10:19:08.147Z,39.10
2018-09-18T10:24:15.970Z,38.20
2018-09-18T10:26:51.988Z,37.90
2018-09-18T10:29:22.257Z,38.00
2018-09-18T10:31:54.978Z,37.80
2018-09-18T10:34:24.438Z,37.80
2018-09-18T10:36:56.452Z,37.60
2018-09-18T10:39:42.943Z,37.20
2018-09-18T10:42:13.833Z,37.10
2018-09-18T10:47:35.538Z,36.70
2018-09-18T10:50:06.391Z,36.40
2018-09-18T10:52:37.922Z,36.20
2018-09-18T10:55:08.311Z,36.10
2018-09-18T10:57:44.875Z,36.10
2018-09-18T11:00:27.956Z,36.10
2018-09-18T11:11:08.599Z,35.20
2018-09-18T11:13:37.973Z,35.40
2018-09-18T11:16:11.876Z,35.10
2018-09-18T11:18:44.719Z,35.00
2018-09-18T11:24:08.441Z,34.80
2018-09-18T11:29:20.282Z,34.70
2018-09-18T11:31:50.284Z,34.90
2018-09-18T11:34:21.734Z,35.00
2018-09-18T11:36:53.255Z,34.70
2018-09-18T11:39:26.441Z,34.30
2018-09-18T11:41:56.526Z,34.10
2018-09-18T11:44:30.704Z,34.40
2018-09-18T11:47:00.851Z,34.50
2018-09-18T11:52:07.836Z,34.80
2018-09-18T11:54:37.144Z,34.70
2018-09-18T11:57:07.251Z,34.90
2018-09-18T11:59:38.139Z,35.10
2018-09-18T12:02:08.918Z,35.50
2018-09-18T12:04:39.249Z,36.10
2018-09-18T12:07:10.668Z,36.30
2018-09-18T12:09:45.592Z,36.40
2018-09-18T12:12:15.566Z,35.90
2018-09-18T12:14:45.652Z,35.40
2018-09-18T12:17:14.293Z,35.20
2018-09-18T12:19:43.827Z,34.80
2018-09-18T12:22:14.215Z,34.70
2018-09-18T12:24:45.765Z,35.60
2018-09-18T12:27:18.682Z,35.40
2018-09-18T12:29:48.604Z,35.60
2018-09-18T12:32:19.085Z,35.60
2018-09-18T12:34:48.675Z,35.60
2018-09-18T12:37:26.657Z,35.90
2018-09-18T12:42:45.180Z,36.20
2018-09-18T12:45:27.785Z,36.20
2018-09-18T12:47:57.428Z,36.00
2018-09-18T12:50:34.283Z,36.00
2018-09-18T12:53:05.901Z,35.80
2018-09-18T12:55:41.306Z,36.00
2018-09-18T13:00:57.341Z,35.70
2018-09-18T13:06:09.843Z,35.40
2018-09-18T13:08:45.106Z,35.40
2018-09-18T13:19:33.142Z,34.90
2018-09-18T13:24:51.712Z,35.20
2018-09-18T13:27:32.444Z,35.20
2018-09-18T13:44:27.280Z,34.80
2018-09-18T13:58:26.678Z,35.00
2018-09-18T14:01:09.403Z,35.00
2018-09-18T14:15:06.243Z,34.90
2018-09-18T14:17:43.754Z,34.90
2018-09-18T14:20:14.637Z,34.90
2018-09-18T14:22:46.588Z,35.00
2018-09-18T14:25:30.878Z,34.80
2018-09-18T14:28:00.123Z,34.80
2018-09-18T14:30:28.927Z,34.70
2018-09-18T14:32:59.466Z,34.50
2018-09-18T14:35:39.656Z,34.50
2018-09-18T14:38:13.756Z,34.80
2018-09-18T14:40:44.360Z,35.00
2018-09-18T14:46:03.067Z,35.00
2018-09-18T14:48:39.622Z,35.10
2018-09-18T14:51:15.257Z,35.20
2018-09-18T14:56:37.750Z,35.30
2018-09-18T15:04:40.728Z,35.70
2018-09-18T15:07:16.271Z,35.90
2018-09-18T15:09:52.260Z,35.90
2018-09-18T15:15:16.917Z,36.20
2018-09-18T15:17:46.559Z,36.30
2018-09-18T15:20:16.927Z,36.40
2018-09-18T15:22:47.685Z,36.60
2018-09-18T15:25:18.363Z,36.80
2018-09-18T15:27:48.805Z,36.90
2018-09-18T15:30:19.963Z,37.00
2018-09-18T15:33:00.031Z,36.40
2018-09-18T15:35:30.399Z,35.50
2018-09-18T15:37:58.989Z,34.50
2018-09-18T15:40:35.100Z,33.80
2018-09-18T15:46:07.541Z,33.20
2018-09-18T15:48:37.099Z,32.90
2018-09-18T15:51:10.906Z,32.60
2018-09-18T15:56:23.405Z,32.40
2018-09-18T15:58:58.516Z,32.50
2018-09-18T16:01:34.104Z,32.50
2018-09-18T16:04:11.784Z,32.50
2018-09-18T16:06:41.808Z,32.50
2018-09-18T16:09:18.699Z,32.50
2018-09-18T16:11:55.042Z,32.60
2018-09-18T16:14:26.148Z,33.10
2018-09-18T16:17:07.230Z,34.10
2018-09-18T16:19:38.710Z,35.40
2018-09-18T16:22:16.030Z,36.50
2018-09-18T16:24:51.333Z,37.50
2018-09-18T16:27:22.744Z,38.20
2018-09-18T16:30:02.787Z,38.90
2018-09-18T16:38:06.238Z,40.20
2018-09-18T16:40:42.262Z,40.70
2018-09-18T16:43:13.266Z,40.80
2018-09-18T16:45:45.642Z,41.80
2018-09-18T16:48:19.015Z,41.40
2018-09-18T16:50:51.251Z,41.70
2018-09-18T16:56:11.353Z,42.20
2018-09-18T16:58:43.552Z,42.40
2018-09-18T17:01:14.826Z,42.70
2018-09-18T17:03:44.449Z,42.80
2018-09-18T17:09:06.738Z,43.10
2018-09-18T17:11:42.464Z,43.10
2018-09-18T17:14:12.270Z,43.30
2018-09-18T17:17:06.061Z,43.00
2018-09-18T17:25:24.724Z,43.60
2018-09-18T17:28:00.187Z,43.70
2018-09-18T17:30:32.939Z,43.60
2018-09-18T17:33:04.808Z,43.70
2018-09-18T17:35:40.539Z,43.60
2018-09-18T17:40:53.802Z,43.50
2018-09-18T17:46:23.957Z,43.70
2018-09-18T17:48:57.086Z,43.80
2018-09-18T17:54:23.916Z,44.00
2018-09-18T17:56:55.908Z,44.10
2018-09-18T17:59:30.635Z,44.60
2018-09-18T18:02:08.246Z,44.10
2018-09-18T18:04:46.231Z,44.10
2018-09-18T18:07:21.241Z,44.00
2018-09-18T18:12:43.853Z,44.00
2018-09-18T18:17:52.474Z,43.80
2018-09-18T18:20:23.714Z,43.80
2018-09-18T18:22:54.902Z,44.00
2018-09-18T18:25:32.800Z,43.90
2018-09-18T18:28:01.748Z,44.00
2018-09-18T18:33:10.111Z,43.80
2018-09-18T18:35:52.024Z,43.60
2018-09-18T18:38:20.896Z,43.50
2018-09-18T18:40:56.869Z,43.40
2018-09-18T18:46:47.180Z,43.10
2018-09-18T18:49:22.628Z,43.00
2018-09-18T18:51:54.507Z,42.90
2018-09-18T18:54:23.634Z,42.80
2018-09-18T18:57:07.213Z,42.70
2018-09-18T18:59:40.337Z,42.70
2018-09-18T19:02:15.458Z,42.70
2018-09-18T19:04:45.900Z,42.80
2018-09-18T19:07:20.671Z,42.90
2018-09-18T19:12:40.441Z,42.90
2018-09-18T19:18:34.530Z,42.90
2018-09-18T19:21:21.227Z,42.90
2018-09-18T19:24:00.867Z,42.80
2018-09-18T19:26:43.965Z,42.80
2018-09-18T19:34:49.061Z,42.80
2018-09-18T19:37:27.745Z,42.70
2018-09-18T19:40:00.876Z,42.50
2018-09-18T19:42:30.723Z,42.50
2018-09-18T19:47:56.871Z,42.50
2018-09-18T19:50:43.402Z,42.50
2018-09-18T19:55:58.692Z,42.60
2018-09-18T20:01:20.840Z,42.60
2018-09-18T20:44:18.895Z,53.20
2018-09-18T20:49:35.371Z,54.80
2018-09-18T21:18:13.339Z,57.20
2018-09-18T22:15:44.741Z,60.60
2018-09-18T22:26:54.296Z,60.20
2018-09-18T22:32:19.073Z,60.10
2018-09-18T22:40:30.449Z,60.00
2018-09-18T22:43:10.551Z,60.10
2018-09-18T22:45:57.296Z,60.10
2018-09-18T22:48:39.702Z,60.00
2018-09-18T22:54:28.004Z,60.20
2018-09-18T23:00:09.401Z,60.30
2018-09-18T23:02:52.831Z,60.40
2018-09-18T23:05:53.560Z,60.60
2018-09-18T23:08:34.123Z,60.80
2018-09-18T23:11:04.368Z,60.90
2018-09-18T23:13:43.047Z,61.00
2018-09-18T23:19:49.940Z,61.40
2018-09-18T23:22:21.286Z,61.40
2018-09-18T23:24:58.817Z,61.40
2018-09-18T23:27:35.158Z,61.60
2018-09-18T23:30:14.092Z,61.70
2018-09-18T23:35:30.871Z,61.90
2018-09-18T23:38:04.883Z,61.80
2018-09-18T23:40:35.228Z,61.90
2018-09-18T23:43:15.446Z,62.00
2018-09-18T23:48:34.893Z,62.30
2018-09-18T23:51:04.952Z,62.30
2018-09-18T23:53:44.356Z,62.40
2018-09-18T23:56:18.453Z,62.60
2018-09-18T23:58:54.209Z,62.60
